sensor_id;sensor_type;location;lat;lon;timestamp;temperature;humidity
10433;DHT22;5263;48.680;9.004;2023-06-24T00:01:25;14.10;99.90
10433;DHT22;5263;48.680;9.004;2023-06-24T00:03:51;14.30;99.90
10433;DHT22;5263;48.680;9.004;2023-06-24T00:06:22;14.20;99.90
10433;DHT22;5263;48.680;9.004;2023-06-24T00:08:51;14.00;99.90
10433;DHT22;5263;48.680;9.004;2023-06-24T00:11:18;13.80;99.90
10433;DHT22;5263;48.680;9.004;2023-06-24T00:13:44;13.90;99.90
10433;DHT22;5263;48.680;9.004;2023-06-24T00:16:10;13.90;99.90
10433;DHT22;5263;48.680;9.004;2023-06-24T00:18:37;13.80;99.90
10433;DHT22;5263;48.680;9.004;2023-06-24T00:21:03;13.80;99.90
10433;DHT22;5263;48.680;9.004;2023-06-24T00:23:30;13.80;99.90
10433;DHT22;5263;48.680;9.004;2023-06-24T00:25:59;13.70;99.90
10433;DHT22;5263;48.680;9.004;2023-06-24T00:28:25;13.60;99.90
10433;DHT22;5263;48.680;9.004;2023-06-24T00:30:50;13.50;99.90
10433;DHT22;5263;48.680;9.004;2023-06-24T00:33:16;13.50;99.90
10433;DHT22;5263;48.680;9.004;2023-06-24T00:35:44;13.40;99.90
10433;DHT22;5263;48.680;9.004;2023-06-24T00:38:10;13.40;99.90
10433;DHT22;5263;48.680;9.004;2023-06-24T00:40:37;13.40;99.90
10433;DHT22;5263;48.680;9.004;2023-06-24T00:43:03;13.50;99.90
10433;DHT22;5263;48.680;9.004;2023-06-24T00:45:29;13.50;99.90
10433;DHT22;5263;48.680;9.004;2023-06-24T00:47:58;13.40;99.90
10433;DHT22;5263;48.680;9.004;2023-06-24T00:50:24;13.40;99.90
10433;DHT22;5263;48.680;9.004;2023-06-24T00:52:50;13.30;99.90
10433;DHT22;5263;48.680;9.004;2023-06-24T00:55:16;13.20;99.90
10433;DHT22;5263;48.680;9.004;2023-06-24T00:57:47;13.20;99.90
10433;DHT22;5263;48.680;9.004;2023-06-24T01:00:21;13.30;99.90
10433;DHT22;5263;48.680;9.004;2023-06-24T01:02:48;13.20;99.90
10433;DHT22;5263;48.680;9.004;2023-06-24T01:05:14;13.30;99.90
10433;DHT22;5263;48.680;9.004;2023-06-24T01:07:41;13.30;99.90
10433;DHT22;5263;48.680;9.004;2023-06-24T01:10:08;13.40;99.90
10433;DHT22;5263;48.680;9.004;2023-06-24T01:12:36;13.30;99.90
10433;DHT22;5263;48.680;9.004;2023-06-24T01:15:04;13.30;99.90
10433;DHT22;5263;48.680;9.004;2023-06-24T01:17:37;13.30;99.90
10433;DHT22;5263;48.680;9.004;2023-06-24T01:20:10;13.30;99.90
10433;DHT22;5263;48.680;9.004;2023-06-24T01:25:57;13.10;99.90
10433;DHT22;5263;48.680;9.004;2023-06-24T01:28:41;13.10;99.90
10433;DHT22;5263;48.680;9.004;2023-06-24T01:31:38;13.00;99.90
10433;DHT22;5263;48.680;9.004;2023-06-24T01:36:35;13.00;99.90
10433;DHT22;5263;48.680;9.004;2023-06-24T01:39:05;13.00;99.90
10433;DHT22;5263;48.680;9.004;2023-06-24T01:41:43;12.80;99.90
10433;DHT22;5263;48.680;9.004;2023-06-24T01:44:14;12.80;99.90
10433;DHT22;5263;48.680;9.004;2023-06-24T01:46:42;12.90;99.90
10433;DHT22;5263;48.680;9.004;2023-06-24T01:49:12;12.80;99.90
10433;DHT22;5263;48.680;9.004;2023-06-24T01:51:39;12.70;99.90
10433;DHT22;5263;48.680;9.004;2023-06-24T01:54:15;12.60;99.90
10433;DHT22;5263;48.680;9.004;2023-06-24T01:56:45;12.40;99.90
10433;DHT22;5263;48.680;9.004;2023-06-24T01:59:13;12.40;99.90
10433;DHT22;5263;48.680;9.004;2023-06-24T02:01:41;12.40;99.90
10433;DHT22;5263;48.680;9.004;2023-06-24T02:04:08;12.40;99.90
10433;DHT22;5263;48.680;9.004;2023-06-24T02:06:36;12.40;99.90
10433;DHT22;5263;48.680;9.004;2023-06-24T02:09:03;12.50;99.90
10433;DHT22;5263;48.680;9.004;2023-06-24T02:11:31;12.50;99.90
10433;DHT22;5263;48.680;9.004;2023-06-24T02:13:59;12.50;99.90
10433;DHT22;5263;48.680;9.004;2023-06-24T02:16:27;12.50;99.90
10433;DHT22;5263;48.680;9.004;2023-06-24T02:18:53;12.40;99.90
10433;DHT22;5263;48.680;9.004;2023-06-24T02:21:21;12.40;99.90
10433;DHT22;5263;48.680;9.004;2023-06-24T02:23:47;12.30;99.90
10433;DHT22;5263;48.680;9.004;2023-06-24T02:26:13;12.30;99.90
10433;DHT22;5263;48.680;9.004;2023-06-24T02:28:40;12.40;99.90
10433;DHT22;5263;48.680;9.004;2023-06-24T02:31:08;12.30;99.90
10433;DHT22;5263;48.680;9.004;2023-06-24T02:33:34;12.20;99.90
10433;DHT22;5263;48.680;9.004;2023-06-24T02:36:00;12.40;99.90
10433;DHT22;5263;48.680;9.004;2023-06-24T02:38:26;12.30;99.90
10433;DHT22;5263;48.680;9.004;2023-06-24T02:40:52;12.20;99.90
10433;DHT22;5263;48.680;9.004;2023-06-24T02:43:17;12.10;99.90
10433;DHT22;5263;48.680;9.004;2023-06-24T02:45:44;12.10;99.90
10433;DHT22;5263;48.680;9.004;2023-06-24T02:48:11;12.20;99.90
10433;DHT22;5263;48.680;9.004;2023-06-24T02:50:38;12.10;99.90
10433;DHT22;5263;48.680;9.004;2023-06-24T02:53:07;12.00;99.90
10433;DHT22;5263;48.680;9.004;2023-06-24T02:55:33;12.00;99.90
10433;DHT22;5263;48.680;9.004;2023-06-24T02:58:00;12.00;99.90
10433;DHT22;5263;48.680;9.004;2023-06-24T03:00:27;12.00;99.90
10433;DHT22;5263;48.680;9.004;2023-06-24T03:02:53;12.10;99.90
10433;DHT22;5263;48.680;9.004;2023-06-24T03:05:19;12.10;99.90
10433;DHT22;5263;48.680;9.004;2023-06-24T03:07:45;12.20;99.90
10433;DHT22;5263;48.680;9.004;2023-06-24T03:10:11;12.20;99.90
10433;DHT22;5263;48.680;9.004;2023-06-24T03:12:37;12.30;99.90
10433;DHT22;5263;48.680;9.004;2023-06-24T03:15:03;12.20;99.90
10433;DHT22;5263;48.680;9.004;2023-06-24T03:17:29;12.20;99.90
10433;DHT22;5263;48.680;9.004;2023-06-24T03:19:55;12.00;99.90
10433;DHT22;5263;48.680;9.004;2023-06-24T03:22:22;11.80;99.90
10433;DHT22;5263;48.680;9.004;2023-06-24T03:24:47;11.80;99.90
10433;DHT22;5263;48.680;9.004;2023-06-24T03:27:14;11.70;99.90
10433;DHT22;5263;48.680;9.004;2023-06-24T03:29:39;11.60;99.90
10433;DHT22;5263;48.680;9.004;2023-06-24T03:32:05;11.70;99.90
10433;DHT22;5263;48.680;9.004;2023-06-24T03:34:31;11.80;99.90
10433;DHT22;5263;48.680;9.004;2023-06-24T03:36:56;11.80;99.90
10433;DHT22;5263;48.680;9.004;2023-06-24T03:39:22;11.90;99.90
10433;DHT22;5263;48.680;9.004;2023-06-24T03:41:48;11.90;99.90
10433;DHT22;5263;48.680;9.004;2023-06-24T03:44:14;12.00;99.90
10433;DHT22;5263;48.680;9.004;2023-06-24T03:46:40;12.10;99.90
10433;DHT22;5263;48.680;9.004;2023-06-24T03:49:05;12.30;99.90
10433;DHT22;5263;48.680;9.004;2023-06-24T03:51:31;12.40;99.90
10433;DHT22;5263;48.680;9.004;2023-06-24T03:53:57;12.30;99.90
10433;DHT22;5263;48.680;9.004;2023-06-24T03:56:23;12.40;99.90
10433;DHT22;5263;48.680;9.004;2023-06-24T03:58:48;12.60;99.90
10433;DHT22;5263;48.680;9.004;2023-06-24T04:01:14;12.50;99.90
10433;DHT22;5263;48.680;9.004;2023-06-24T04:03:40;12.50;99.90
10433;DHT22;5263;48.680;9.004;2023-06-24T04:06:05;12.40;99.90
10433;DHT22;5263;48.680;9.004;2023-06-24T04:08:31;12.40;99.90
10433;DHT22;5263;48.680;9.004;2023-06-24T04:10:57;12.40;99.90
10433;DHT22;5263;48.680;9.004;2023-06-24T04:13:29;12.40;99.90
10433;DHT22;5263;48.680;9.004;2023-06-24T04:15:54;12.50;99.90
10433;DHT22;5263;48.680;9.004;2023-06-24T04:18:20;12.60;99.90
10433;DHT22;5263;48.680;9.004;2023-06-24T04:20:46;12.50;99.90
10433;DHT22;5263;48.680;9.004;2023-06-24T04:23:12;12.60;99.90
10433;DHT22;5263;48.680;9.004;2023-06-24T04:25:40;12.60;99.90
10433;DHT22;5263;48.680;9.004;2023-06-24T04:28:06;12.70;99.90
10433;DHT22;5263;48.680;9.004;2023-06-24T04:30:32;12.80;99.90
10433;DHT22;5263;48.680;9.004;2023-06-24T04:32:58;12.80;99.90
10433;DHT22;5263;48.680;9.004;2023-06-24T04:35:24;12.80;99.90
10433;DHT22;5263;48.680;9.004;2023-06-24T04:37:50;13.00;99.90
10433;DHT22;5263;48.680;9.004;2023-06-24T04:40:17;13.10;99.90
10433;DHT22;5263;48.680;9.004;2023-06-24T04:42:44;13.20;99.90
10433;DHT22;5263;48.680;9.004;2023-06-24T04:45:10;13.30;99.90
10433;DHT22;5263;48.680;9.004;2023-06-24T04:47:35;13.60;99.90
10433;DHT22;5263;48.680;9.004;2023-06-24T04:50:01;13.70;99.90
10433;DHT22;5263;48.680;9.004;2023-06-24T04:52:27;13.80;99.90
10433;DHT22;5263;48.680;9.004;2023-06-24T04:54:53;13.90;99.90
10433;DHT22;5263;48.680;9.004;2023-06-24T04:57:27;13.80;99.90
10433;DHT22;5263;48.680;9.004;2023-06-24T04:59:53;14.00;99.90
10433;DHT22;5263;48.680;9.004;2023-06-24T05:02:19;14.00;99.90
10433;DHT22;5263;48.680;9.004;2023-06-24T05:04:44;14.10;99.90
10433;DHT22;5263;48.680;9.004;2023-06-24T05:07:10;14.00;99.90
10433;DHT22;5263;48.680;9.004;2023-06-24T05:09:36;14.40;99.90
10433;DHT22;5263;48.680;9.004;2023-06-24T05:12:05;14.40;99.90
10433;DHT22;5263;48.680;9.004;2023-06-24T05:14:31;14.60;99.90
10433;DHT22;5263;48.680;9.004;2023-06-24T05:16:56;14.70;99.90
10433;DHT22;5263;48.680;9.004;2023-06-24T05:19:22;14.80;99.90
10433;DHT22;5263;48.680;9.004;2023-06-24T05:21:47;15.00;99.90
10433;DHT22;5263;48.680;9.004;2023-06-24T05:24:13;15.10;99.90
10433;DHT22;5263;48.680;9.004;2023-06-24T05:26:39;15.50;99.90
10433;DHT22;5263;48.680;9.004;2023-06-24T05:29:04;15.70;99.90
10433;DHT22;5263;48.680;9.004;2023-06-24T05:31:30;15.90;99.90
10433;DHT22;5263;48.680;9.004;2023-06-24T05:33:55;16.00;99.90
10433;DHT22;5263;48.680;9.004;2023-06-24T05:36:21;16.20;99.90
10433;DHT22;5263;48.680;9.004;2023-06-24T05:38:47;16.20;99.90
10433;DHT22;5263;48.680;9.004;2023-06-24T05:41:14;16.30;99.90
10433;DHT22;5263;48.680;9.004;2023-06-24T05:43:39;16.50;99.90
10433;DHT22;5263;48.680;9.004;2023-06-24T05:46:05;16.70;99.90
10433;DHT22;5263;48.680;9.004;2023-06-24T05:48:31;16.70;99.90
10433;DHT22;5263;48.680;9.004;2023-06-24T05:50:56;16.90;99.90
10433;DHT22;5263;48.680;9.004;2023-06-24T05:53:22;17.00;99.90
10433;DHT22;5263;48.680;9.004;2023-06-24T05:55:47;17.00;99.90
10433;DHT22;5263;48.680;9.004;2023-06-24T05:58:13;17.10;99.90
10433;DHT22;5263;48.680;9.004;2023-06-24T06:00:39;17.20;99.90
10433;DHT22;5263;48.680;9.004;2023-06-24T06:03:04;17.30;99.90
10433;DHT22;5263;48.680;9.004;2023-06-24T06:05:30;17.40;99.90
10433;DHT22;5263;48.680;9.004;2023-06-24T06:07:56;17.30;99.90
10433;DHT22;5263;48.680;9.004;2023-06-24T06:10:21;17.40;99.90
10433;DHT22;5263;48.680;9.004;2023-06-24T06:12:47;17.50;99.90
10433;DHT22;5263;48.680;9.004;2023-06-24T06:15:13;17.70;99.90
10433;DHT22;5263;48.680;9.004;2023-06-24T06:17:38;17.80;99.90
10433;DHT22;5263;48.680;9.004;2023-06-24T06:20:05;17.90;99.90
10433;DHT22;5263;48.680;9.004;2023-06-24T06:22:30;18.00;99.90
10433;DHT22;5263;48.680;9.004;2023-06-24T06:24:57;17.90;99.90
10433;DHT22;5263;48.680;9.004;2023-06-24T06:27:23;18.20;99.90
10433;DHT22;5263;48.680;9.004;2023-06-24T06:29:48;18.20;99.90
10433;DHT22;5263;48.680;9.004;2023-06-24T06:32:14;18.40;99.90
10433;DHT22;5263;48.680;9.004;2023-06-24T06:34:39;18.60;99.90
10433;DHT22;5263;48.680;9.004;2023-06-24T06:37:05;18.70;99.90
10433;DHT22;5263;48.680;9.004;2023-06-24T06:39:34;18.70;99.90
10433;DHT22;5263;48.680;9.004;2023-06-24T06:42:02;18.90;99.90
10433;DHT22;5263;48.680;9.004;2023-06-24T06:44:28;19.00;99.90
10433;DHT22;5263;48.680;9.004;2023-06-24T06:46:53;19.00;99.90
10433;DHT22;5263;48.680;9.004;2023-06-24T06:49:19;19.00;99.90
10433;DHT22;5263;48.680;9.004;2023-06-24T06:51:45;19.20;99.90
10433;DHT22;5263;48.680;9.004;2023-06-24T06:54:10;19.20;99.90
10433;DHT22;5263;48.680;9.004;2023-06-24T06:56:36;19.30;99.90
10433;DHT22;5263;48.680;9.004;2023-06-24T06:59:01;19.60;99.90
10433;DHT22;5263;48.680;9.004;2023-06-24T07:01:27;19.50;99.90
10433;DHT22;5263;48.680;9.004;2023-06-24T07:03:53;19.50;99.90
10433;DHT22;5263;48.680;9.004;2023-06-24T07:06:19;19.80;99.90
10433;DHT22;5263;48.680;9.004;2023-06-24T07:08:45;19.80;99.90
10433;DHT22;5263;48.680;9.004;2023-06-24T07:11:10;19.80;99.90
10433;DHT22;5263;48.680;9.004;2023-06-24T07:13:36;20.00;99.90
10433;DHT22;5263;48.680;9.004;2023-06-24T07:16:02;20.00;99.90
10433;DHT22;5263;48.680;9.004;2023-06-24T07:18:27;20.20;99.90
10433;DHT22;5263;48.680;9.004;2023-06-24T07:20:56;20.30;99.90
10433;DHT22;5263;48.680;9.004;2023-06-24T07:23:22;20.40;99.90
10433;DHT22;5263;48.680;9.004;2023-06-24T07:25:47;20.30;99.90
10433;DHT22;5263;48.680;9.004;2023-06-24T07:28:13;20.40;99.90
10433;DHT22;5263;48.680;9.004;2023-06-24T07:30:39;20.40;99.90
10433;DHT22;5263;48.680;9.004;2023-06-24T07:33:05;20.40;99.90
10433;DHT22;5263;48.680;9.004;2023-06-24T07:35:32;20.30;99.90
10433;DHT22;5263;48.680;9.004;2023-06-24T07:37:58;20.50;99.90
10433;DHT22;5263;48.680;9.004;2023-06-24T07:40:24;20.60;99.90
10433;DHT22;5263;48.680;9.004;2023-06-24T07:42:49;20.80;99.90
10433;DHT22;5263;48.680;9.004;2023-06-24T07:45:15;21.00;99.90
10433;DHT22;5263;48.680;9.004;2023-06-24T07:47:41;21.10;99.90
10433;DHT22;5263;48.680;9.004;2023-06-24T07:50:06;21.10;99.90
10433;DHT22;5263;48.680;9.004;2023-06-24T07:52:32;21.10;99.90
10433;DHT22;5263;48.680;9.004;2023-06-24T07:54:58;21.20;99.90
10433;DHT22;5263;48.680;9.004;2023-06-24T07:57:26;21.20;99.90
10433;DHT22;5263;48.680;9.004;2023-06-24T07:59:52;21.30;99.90
10433;DHT22;5263;48.680;9.004;2023-06-24T08:02:20;21.40;99.90
10433;DHT22;5263;48.680;9.004;2023-06-24T08:04:45;21.40;99.90
10433;DHT22;5263;48.680;9.004;2023-06-24T08:07:11;21.50;99.90
10433;DHT22;5263;48.680;9.004;2023-06-24T08:09:36;21.60;99.90
10433;DHT22;5263;48.680;9.004;2023-06-24T08:12:02;21.70;99.90
10433;DHT22;5263;48.680;9.004;2023-06-24T08:14:28;21.70;99.90
10433;DHT22;5263;48.680;9.004;2023-06-24T08:16:54;21.70;99.90
10433;DHT22;5263;48.680;9.004;2023-06-24T08:19:19;21.80;99.90
10433;DHT22;5263;48.680;9.004;2023-06-24T08:21:45;21.80;99.90
10433;DHT22;5263;48.680;9.004;2023-06-24T08:24:11;21.90;99.90
10433;DHT22;5263;48.680;9.004;2023-06-24T08:26:36;22.10;99.90
10433;DHT22;5263;48.680;9.004;2023-06-24T08:29:20;22.30;99.90
10433;DHT22;5263;48.680;9.004;2023-06-24T08:35:09;22.40;99.90
10433;DHT22;5263;48.680;9.004;2023-06-24T08:37:36;22.50;99.90
10433;DHT22;5263;48.680;9.004;2023-06-24T08:40:02;22.70;99.90
10433;DHT22;5263;48.680;9.004;2023-06-24T08:42:29;22.70;99.90
10433;DHT22;5263;48.680;9.004;2023-06-24T08:44:55;22.80;99.90
10433;DHT22;5263;48.680;9.004;2023-06-24T08:50:51;22.90;99.90
10433;DHT22;5263;48.680;9.004;2023-06-24T08:53:18;22.80;99.90
10433;DHT22;5263;48.680;9.004;2023-06-24T08:55:46;23.00;98.70
10433;DHT22;5263;48.680;9.004;2023-06-24T08:58:13;22.90;96.90
10433;DHT22;5263;48.680;9.004;2023-06-24T09:00:39;23.00;99.00
10433;DHT22;5263;48.680;9.004;2023-06-24T09:03:05;23.10;97.40
10433;DHT22;5263;48.680;9.004;2023-06-24T09:05:30;23.20;98.00
10433;DHT22;5263;48.680;9.004;2023-06-24T09:07:56;23.20;98.40
10433;DHT22;5263;48.680;9.004;2023-06-24T09:10:36;23.30;97.40
10433;DHT22;5263;48.680;9.004;2023-06-24T09:13:06;23.10;97.40
10433;DHT22;5263;48.680;9.004;2023-06-24T09:15:36;23.20;99.10
10433;DHT22;5263;48.680;9.004;2023-06-24T09:18:03;23.30;99.30
10433;DHT22;5263;48.680;9.004;2023-06-24T09:20:33;23.60;97.30
10433;DHT22;5263;48.680;9.004;2023-06-24T09:23:04;23.40;98.00
10433;DHT22;5263;48.680;9.004;2023-06-24T09:25:30;23.90;98.70
10433;DHT22;5263;48.680;9.004;2023-06-24T09:28:01;23.90;96.20
10433;DHT22;5263;48.680;9.004;2023-06-24T09:30:27;23.70;96.30
10433;DHT22;5263;48.680;9.004;2023-06-24T09:32:53;23.70;96.80
10433;DHT22;5263;48.680;9.004;2023-06-24T09:35:24;24.00;95.10
10433;DHT22;5263;48.680;9.004;2023-06-24T09:40:16;24.40;95.30
10433;DHT22;5263;48.680;9.004;2023-06-24T09:42:53;24.20;95.00
10433;DHT22;5263;48.680;9.004;2023-06-24T09:45:28;24.30;95.30
10433;DHT22;5263;48.680;9.004;2023-06-24T09:47:55;24.40;94.10
10433;DHT22;5263;48.680;9.004;2023-06-24T09:50:21;24.40;93.00
10433;DHT22;5263;48.680;9.004;2023-06-24T09:52:48;24.30;93.20
10433;DHT22;5263;48.680;9.004;2023-06-24T09:55:15;24.10;92.50
10433;DHT22;5263;48.680;9.004;2023-06-24T09:57:51;24.40;93.40
10433;DHT22;5263;48.680;9.004;2023-06-24T10:00:19;24.50;91.70
10433;DHT22;5263;48.680;9.004;2023-06-24T10:02:47;24.70;91.10
10433;DHT22;5263;48.680;9.004;2023-06-24T10:05:13;24.70;90.80
10433;DHT22;5263;48.680;9.004;2023-06-24T10:07:40;24.80;92.60
10433;DHT22;5263;48.680;9.004;2023-06-24T10:10:07;24.90;91.70
10433;DHT22;5263;48.680;9.004;2023-06-24T10:12:35;24.30;92.10
10433;DHT22;5263;48.680;9.004;2023-06-24T10:15:01;24.40;93.00
10433;DHT22;5263;48.680;9.004;2023-06-24T10:17:26;24.40;93.70
10433;DHT22;5263;48.680;9.004;2023-06-24T10:19:53;24.40;90.70
10433;DHT22;5263;48.680;9.004;2023-06-24T10:22:22;24.80;91.50
10433;DHT22;5263;48.680;9.004;2023-06-24T10:24:52;24.80;90.10
10433;DHT22;5263;48.680;9.004;2023-06-24T10:27:20;25.40;91.10
10433;DHT22;5263;48.680;9.004;2023-06-24T10:29:53;26.00;87.30
10433;DHT22;5263;48.680;9.004;2023-06-24T10:32:21;25.90;87.80
10433;DHT22;5263;48.680;9.004;2023-06-24T10:34:53;26.70;84.70
10433;DHT22;5263;48.680;9.004;2023-06-24T10:37:21;28.50;81.50
10433;DHT22;5263;48.680;9.004;2023-06-24T10:39:54;28.40;76.80
10433;DHT22;5263;48.680;9.004;2023-06-24T10:42:29;28.40;73.80
10433;DHT22;5263;48.680;9.004;2023-06-24T10:44:57;28.50;76.80
10433;DHT22;5263;48.680;9.004;2023-06-24T10:47:24;28.90;77.20
10433;DHT22;5263;48.680;9.004;2023-06-24T10:49:50;31.10;72.80
10433;DHT22;5263;48.680;9.004;2023-06-24T10:52:19;33.40;61.30
10433;DHT22;5263;48.680;9.004;2023-06-24T10:54:49;35.10;54.10
10433;DHT22;5263;48.680;9.004;2023-06-24T10:57:15;34.80;52.50
10433;DHT22;5263;48.680;9.004;2023-06-24T10:59:41;33.40;52.50
10433;DHT22;5263;48.680;9.004;2023-06-24T11:02:12;32.30;56.20
10433;DHT22;5263;48.680;9.004;2023-06-24T11:04:49;33.70;52.60
10433;DHT22;5263;48.680;9.004;2023-06-24T11:07:17;36.10;48.00
10433;DHT22;5263;48.680;9.004;2023-06-24T11:09:55;33.50;50.70
10433;DHT22;5263;48.680;9.004;2023-06-24T11:12:25;31.30;52.90
10433;DHT22;5263;48.680;9.004;2023-06-24T11:14:55;32.90;54.00
10433;DHT22;5263;48.680;9.004;2023-06-24T11:17:21;34.40;50.80
10433;DHT22;5263;48.680;9.004;2023-06-24T11:19:46;33.40;51.90
10433;DHT22;5263;48.680;9.004;2023-06-24T11:22:12;34.00;52.30
10433;DHT22;5263;48.680;9.004;2023-06-24T11:24:37;35.40;48.20
10433;DHT22;5263;48.680;9.004;2023-06-24T11:27:05;34.00;48.20
10433;DHT22;5263;48.680;9.004;2023-06-24T11:29:32;36.00;46.90
10433;DHT22;5263;48.680;9.004;2023-06-24T11:32:00;34.80;48.60
10433;DHT22;5263;48.680;9.004;2023-06-24T11:34:26;33.30;45.90
10433;DHT22;5263;48.680;9.004;2023-06-24T11:36:51;36.20;46.50
10433;DHT22;5263;48.680;9.004;2023-06-24T11:39:25;34.50;44.50
10433;DHT22;5263;48.680;9.004;2023-06-24T11:41:51;30.80;48.10
10433;DHT22;5263;48.680;9.004;2023-06-24T11:44:20;30.60;52.50
10433;DHT22;5263;48.680;9.004;2023-06-24T11:46:47;31.40;50.80
10433;DHT22;5263;48.680;9.004;2023-06-24T11:49:13;32.30;48.80
10433;DHT22;5263;48.680;9.004;2023-06-24T11:51:46;31.40;48.60
10433;DHT22;5263;48.680;9.004;2023-06-24T11:54:14;32.60;49.20
10433;DHT22;5263;48.680;9.004;2023-06-24T11:56:42;35.60;44.60
10433;DHT22;5263;48.680;9.004;2023-06-24T11:59:28;37.40;41.70
10433;DHT22;5263;48.680;9.004;2023-06-24T12:01:56;36.00;43.20
10433;DHT22;5263;48.680;9.004;2023-06-24T12:04:28;34.00;45.70
10433;DHT22;5263;48.680;9.004;2023-06-24T12:06:54;34.70;45.00
10433;DHT22;5263;48.680;9.004;2023-06-24T12:09:19;32.40;46.20
10433;DHT22;5263;48.680;9.004;2023-06-24T12:11:45;33.10;46.90
10433;DHT22;5263;48.680;9.004;2023-06-24T12:14:11;32.30;48.30
10433;DHT22;5263;48.680;9.004;2023-06-24T12:16:38;32.80;47.00
10433;DHT22;5263;48.680;9.004;2023-06-24T12:19:04;34.10;47.40
10433;DHT22;5263;48.680;9.004;2023-06-24T12:21:30;33.40;46.50
10433;DHT22;5263;48.680;9.004;2023-06-24T12:23:55;33.90;47.30
10433;DHT22;5263;48.680;9.004;2023-06-24T12:26:21;35.10;45.20
10433;DHT22;5263;48.680;9.004;2023-06-24T12:28:46;36.20;43.90
10433;DHT22;5263;48.680;9.004;2023-06-24T12:31:12;36.30;41.20
10433;DHT22;5263;48.680;9.004;2023-06-24T12:33:37;38.50;41.30
10433;DHT22;5263;48.680;9.004;2023-06-24T12:36:03;36.60;38.90
10433;DHT22;5263;48.680;9.004;2023-06-24T12:38:29;34.90;41.60
10433;DHT22;5263;48.680;9.004;2023-06-24T12:40:55;35.00;44.00
10433;DHT22;5263;48.680;9.004;2023-06-24T12:43:21;34.70;42.20
10433;DHT22;5263;48.680;9.004;2023-06-24T12:45:47;34.70;43.40
10433;DHT22;5263;48.680;9.004;2023-06-24T12:48:13;36.90;41.20
10433;DHT22;5263;48.680;9.004;2023-06-24T12:50:39;34.90;47.10
10433;DHT22;5263;48.680;9.004;2023-06-24T12:53:05;35.90;42.30
10433;DHT22;5263;48.680;9.004;2023-06-24T12:55:30;34.20;41.80
10433;DHT22;5263;48.680;9.004;2023-06-24T12:57:56;34.40;45.80
10433;DHT22;5263;48.680;9.004;2023-06-24T13:00:23;35.20;41.20
10433;DHT22;5263;48.680;9.004;2023-06-24T13:02:50;37.10;40.90
10433;DHT22;5263;48.680;9.004;2023-06-24T13:05:16;36.60;37.80
10433;DHT22;5263;48.680;9.004;2023-06-24T13:07:42;34.80;38.90
10433;DHT22;5263;48.680;9.004;2023-06-24T13:10:08;33.90;38.90
10433;DHT22;5263;48.680;9.004;2023-06-24T13:12:35;33.80;41.40
10433;DHT22;5263;48.680;9.004;2023-06-24T13:15:01;32.10;40.80
10433;DHT22;5263;48.680;9.004;2023-06-24T13:17:26;33.40;43.70
10433;DHT22;5263;48.680;9.004;2023-06-24T13:19:52;34.70;41.90
10433;DHT22;5263;48.680;9.004;2023-06-24T13:22:18;35.00;40.60
10433;DHT22;5263;48.680;9.004;2023-06-24T13:24:44;35.40;41.10
10433;DHT22;5263;48.680;9.004;2023-06-24T13:27:10;37.40;39.50
10433;DHT22;5263;48.680;9.004;2023-06-24T13:29:36;37.50;37.80
10433;DHT22;5263;48.680;9.004;2023-06-24T13:32:02;39.20;37.00
10433;DHT22;5263;48.680;9.004;2023-06-24T13:34:27;39.30;35.30
10433;DHT22;5263;48.680;9.004;2023-06-24T13:36:53;35.90;40.80
10433;DHT22;5263;48.680;9.004;2023-06-24T13:39:18;34.60;40.20
10433;DHT22;5263;48.680;9.004;2023-06-24T13:41:44;36.00;39.90
10433;DHT22;5263;48.680;9.004;2023-06-24T13:44:10;36.10;38.00
10433;DHT22;5263;48.680;9.004;2023-06-24T13:46:36;33.20;41.40
10433;DHT22;5263;48.680;9.004;2023-06-24T13:49:02;33.20;42.10
10433;DHT22;5263;48.680;9.004;2023-06-24T13:51:28;35.20;41.70
10433;DHT22;5263;48.680;9.004;2023-06-24T13:53:54;33.50;40.50
10433;DHT22;5263;48.680;9.004;2023-06-24T13:56:21;34.60;40.60
10433;DHT22;5263;48.680;9.004;2023-06-24T13:58:47;32.80;42.70
10433;DHT22;5263;48.680;9.004;2023-06-24T14:01:13;31.60;44.90
10433;DHT22;5263;48.680;9.004;2023-06-24T14:03:39;31.10;44.90
10433;DHT22;5263;48.680;9.004;2023-06-24T14:06:04;32.00;43.30
10433;DHT22;5263;48.680;9.004;2023-06-24T14:08:31;33.80;40.90
10433;DHT22;5263;48.680;9.004;2023-06-24T14:10:58;33.10;42.50
10433;DHT22;5263;48.680;9.004;2023-06-24T14:13:25;35.70;40.40
10433;DHT22;5263;48.680;9.004;2023-06-24T14:15:52;36.30;38.40
10433;DHT22;5263;48.680;9.004;2023-06-24T14:18:18;35.30;40.50
10433;DHT22;5263;48.680;9.004;2023-06-24T14:20:44;37.70;38.70
10433;DHT22;5263;48.680;9.004;2023-06-24T14:23:10;35.70;37.70
10433;DHT22;5263;48.680;9.004;2023-06-24T14:25:36;35.10;39.10
10433;DHT22;5263;48.680;9.004;2023-06-24T14:28:03;34.90;39.20
10433;DHT22;5263;48.680;9.004;2023-06-24T14:30:31;33.70;41.80
10433;DHT22;5263;48.680;9.004;2023-06-24T14:32:56;34.00;41.60
10433;DHT22;5263;48.680;9.004;2023-06-24T14:35:22;33.50;42.50
10433;DHT22;5263;48.680;9.004;2023-06-24T14:37:48;32.90;41.80
10433;DHT22;5263;48.680;9.004;2023-06-24T14:40:13;31.20;43.10
10433;DHT22;5263;48.680;9.004;2023-06-24T14:42:39;29.30;46.10
10433;DHT22;5263;48.680;9.004;2023-06-24T14:45:05;29.50;48.30
10433;DHT22;5263;48.680;9.004;2023-06-24T14:47:30;30.00;47.70
10433;DHT22;5263;48.680;9.004;2023-06-24T14:49:57;30.40;46.80
10433;DHT22;5263;48.680;9.004;2023-06-24T14:52:22;29.90;45.80
10433;DHT22;5263;48.680;9.004;2023-06-24T14:54:48;30.10;45.90
10433;DHT22;5263;48.680;9.004;2023-06-24T14:57:14;30.40;46.10
10433;DHT22;5263;48.680;9.004;2023-06-24T14:59:41;30.80;45.00
10433;DHT22;5263;48.680;9.004;2023-06-24T15:02:07;31.10;45.40
10433;DHT22;5263;48.680;9.004;2023-06-24T15:04:32;30.80;44.10
10433;DHT22;5263;48.680;9.004;2023-06-24T15:06:59;30.20;44.80
10433;DHT22;5263;48.680;9.004;2023-06-24T15:09:25;29.80;45.90
10433;DHT22;5263;48.680;9.004;2023-06-24T15:11:51;29.70;48.20
10433;DHT22;5263;48.680;9.004;2023-06-24T15:14:17;29.60;49.40
10433;DHT22;5263;48.680;9.004;2023-06-24T15:16:43;29.00;48.90
10433;DHT22;5263;48.680;9.004;2023-06-24T15:19:09;29.00;50.10
10433;DHT22;5263;48.680;9.004;2023-06-24T15:21:34;28.70;48.10
10433;DHT22;5263;48.680;9.004;2023-06-24T15:24:00;27.70;49.30
10433;DHT22;5263;48.680;9.004;2023-06-24T15:26:25;27.70;52.60
10433;DHT22;5263;48.680;9.004;2023-06-24T15:28:51;27.60;50.60
10433;DHT22;5263;48.680;9.004;2023-06-24T15:31:16;27.40;50.60
10433;DHT22;5263;48.680;9.004;2023-06-24T15:33:42;27.90;53.60
10433;DHT22;5263;48.680;9.004;2023-06-24T15:36:08;28.20;52.30
10433;DHT22;5263;48.680;9.004;2023-06-24T15:38:34;28.30;51.00
10433;DHT22;5263;48.680;9.004;2023-06-24T15:41:00;28.40;52.60
10433;DHT22;5263;48.680;9.004;2023-06-24T15:43:25;27.90;50.80
10433;DHT22;5263;48.680;9.004;2023-06-24T15:45:51;27.10;51.20
10433;DHT22;5263;48.680;9.004;2023-06-24T15:48:17;27.20;53.00
10433;DHT22;5263;48.680;9.004;2023-06-24T15:50:42;27.50;52.20
10433;DHT22;5263;48.680;9.004;2023-06-24T15:53:08;27.40;52.30
10433;DHT22;5263;48.680;9.004;2023-06-24T15:55:34;27.30;53.40
10433;DHT22;5263;48.680;9.004;2023-06-24T15:57:59;27.50;52.60